Huvudsida
METAR-TAF:

METAR-TAF

Flygplatser :

Uppsala-Ärna flygplats

Uppsala, Sverige

latitud: 59-53N, longitud: 017-36E, höjd: 21 m

Aktuellt väderrapport

Denna rapport gjordes för 53 minuter sedan, klockan 12:50 UTC
Vind 5 kt från syd/sydost, varierande mellan ost/sydost och syd/sydväst
Temperatur 24°C
Fuktighet 54%
Tryck 1014 hPa
Sikt 10 km eller mer
Inga moln under 1 500 m eller inga cumulonimbus

METAR: ESCM 161250Z 15005KT 120V210 CAVOK 24/14 Q1014

Tid: 15:43 (13:43 UTC)

Väderprognos

Denna rapport gjordes för 5 timmar och 13 minuter sedan, klockan 08:30 UTC
Prognos gäller från 16 kl. 09 UTC till 16 kl. 14 UTC
Vind 7 kt från syd
Sikt 10 km eller mer
Spridda moln på en höjd av 3000 ft

TAF: ESCM 160830Z 1609/1614 19007KT 9999 SCT030

Aktuella väderrapporter och prognoser från 4000 flygplatser (METAR- och TAF-rapporter).

De tillgängliga stationerna syns som gula och röda prickar på kartan.

För musen över prickarna för att se namnen på stationerna.

Klicka sedan för att få väderrapporter och prognoser.

För att ändra kartan: Klicka på de gröna knapparna med ett svart kors på för att zooma in; den gröna knappen med ett streck på för att zooma ut; eller på de gröna pilarna för angränsande kartor.


METAR-TAF: